Tiempo atmosférico en la estación meteorológica de Barcelona, Museo Marítimo, Barcelona (37 m.)



Fecha
DESCASC
Temp. máxima en grados centígrados (hora)
DESCASC
Temp. mínima en grados centígrados (hora)
DESCASC
Temp. media en grados centígrados
DESCASC
Racha de viento máxima en m/sg (hora)
DESCASC
Velocidad máxima media en intervalos de 10 minutos(hora)
DESCASC
Precipitaciones diarias en mm
DESCASC
Precipitaciones de 00:00 a 06:00 en mm
DESCASC
Precipitaciones de 06:00 a 12:00 en mm
DESCASC
Precipitaciones de 12:00 a 18:00 en mm
DESCASC
Precipitaciones de 18:00 a 24:00 en mm
DESCASC
25-04-2019 -- (--) -- (--) -- 8.89 (09:10) 4.44 (09:10) 0 0 0 0 0
24-04-2019 -- (--) -- (--) -- 13.06 (18:20) 6.94 (16:00) 0 0 0 0 0
23-04-2019 -- (--) -- (--) -- 8.89 (14:50) 5.28 (14:40) 1 1 0 0 0
22-04-2019 -- (--) -- (--) -- 10.28 (17:40) 4.17 (07:00) 0 0 0 0 0
21-04-2019 -- (--) -- (--) -- 12.78 (16:30) 5 (16:30) 0 0 0 0 0
20-04-2019 -- (--) -- (--) -- 11.94 (13:00) 4.72 (13:20) 0 0 0 0 0
19-04-2019 -- (--) -- (--) -- 14.17 (16:20) 6.39 (16:50) 0 0 0 0 0
18-04-2019 -- (--) -- (--) -- 12.22 (15:30) 5.28 (15:30) 0 0 0 0 0
17-04-2019 -- (--) -- (--) -- 4.72 (23:59) 2.5 (23:50) 0 0 0 0 0
16-04-2019 -- (--) -- (--) -- 5.56 (15:30) 2.78 (14:40) 0 0 0 0 0
15-04-2019 -- (--) -- (--) -- 5.28 (11:10) 2.5 (14:10) 0 0 0 0 0
14-04-2019 -- (--) -- (--) -- 6.94 (15:10) 3.06 (13:10) 0 0 0 0 0
13-04-2019 -- (--) -- (--) -- 5.83 (17:10) 2.78 (16:40) 0 0 0 0 0
12-04-2019 -- (--) -- (--) -- 5.83 (16:30) 2.78 (05:00) 0 0 0 0 0
11-04-2019 -- (--) -- (--) -- 5.83 (12:50) 3.33 (06:40) 0 0 0 0 0
10-04-2019 -- (--) -- (--) -- 8.33 (14:50) 4.72 (15:00) 2 0 0 2 0
09-04-2019 -- (--) -- (--) -- 6.11 (13:30) 2.5 (13:30) 3.8 0 0 1 2.8
08-04-2019 -- (--) -- (--) -- 10.83 (19:10) 6.39 (19:10) 0.2 0 0 0.2 0
07-04-2019 -- (--) -- (--) -- 6.11 (18:10) 3.33 (18:10) 2 0 0 2 0
06-04-2019 -- (--) -- (--) -- 10.83 (17:30) 5 (17:00) 1.4 1.4 0 0 0
05-04-2019 -- (--) -- (--) -- 12.5 (14:50) 5.28 (14:20) 2.2 0 0 0 2.2
04-04-2019 -- (--) -- (--) -- 6.67 (13:50) 3.33 (14:00) 0 0 0 0 0
03-04-2019 -- (--) -- (--) -- 8.61 (14:00) 4.17 (14:00) 5 3.2 0 0 1.8
02-04-2019 -- (--) -- (--) -- 10.83 (18:20) 5.83 (14:50) 0 0 0 0 0
01-04-2019 -- (--) -- (--) -- 4.72 (19:10) 2.78 (19:20) 0 0 0 0 0
31-03-2019 -- (--) -- (--) -- 8.33 (15:40) 3.61 (13:10) 0 0 0 0 0
30-03-2019 -- (--) -- (--) -- 5.83 (15:40) 3.06 (17:20) 0 0 0 0 0
29-03-2019 -- (--) -- (--) -- 6.11 (19:10) 2.78 (15:40) 0 0 0 0 0
28-03-2019 -- (--) -- (--) -- 5.83 (15:10) 2.22 (16:30) 0 0 0 0 0
27-03-2019 -- (--) -- (--) -- 7.78 (13:40) 4.17 (12:50) 0 0 0 0 0

Gráficas

Temp. máximas Temp. mínimas Temp. medias Precipitaciones Rachas de viento máximas Velocidades máximas media en intervalos de 10 minutos

Datos horarios

Fecha y hora oficial Temperatura (ºC) Velocidad del viento (km/h) Dirección del viento Racha (km/h) Dirección de racha Precipitación (mm) Presión (hPa) Tendencia (hPa) Humedad (%)
2019-04-25 23:00:00 16.8 9 Oeste 21 Oeste 0 -- -- 50
2019-04-25 22:00:00 16.2 4 Oeste 10 Oeste 0 -- -- 71
2019-04-25 21:00:00 15.9 5 Oeste 23 Sudoeste 0 -- -- 75
2019-04-25 20:00:00 16.6 10 Oeste 25 Oeste 0 -- -- 73
2019-04-25 19:00:00 17.4 14 Oeste 26 Sudoeste 0 -- -- 70
2019-04-25 18:00:00 16.9 7 Oeste 21 Oeste 0 -- -- 82
2019-04-25 17:00:00 16.8 4 Este 12 Sur 0 -- -- 71
2019-04-25 16:00:00 18.2 4 Sur 13 Sudeste 0 -- -- 64
2019-04-25 15:00:00 17.1 7 Nordeste 15 Nordeste 0 -- -- 68
2019-04-25 14:00:00 18 3 Nordeste 14 Nordeste 0 -- -- 63
2019-04-25 13:00:00 18.8 3 Sur 15 Oeste 0 -- -- 57
2019-04-25 12:00:00 17.8 9 Oeste 26 Oeste 0 -- -- 75
2019-04-25 11:00:00 17.6 12 Oeste 30 Oeste 0 -- -- 76
2019-04-25 10:00:00 16.6 16 Oeste 32 Oeste 0 -- -- 79
2019-04-25 09:00:00 16.1 13 Oeste 26 Oeste 0 -- -- 80
2019-04-25 08:00:00 14.8 13 Oeste 22 Oeste 0 -- -- 87
2019-04-25 07:00:00 15.1 8 Oeste 18 Oeste 0 -- -- 81
2019-04-25 06:00:00 15.1 6 Oeste 22 Sudoeste 0 -- -- 81
2019-04-25 05:00:00 15.3 8 Oeste 25 Oeste 0 -- -- 80
2019-04-25 04:00:00 15.3 8 Sudoeste 21 Oeste 0 -- -- 80
2019-04-25 03:00:00 15.3 8 Sudoeste 18 Sudoeste 0 -- -- 81
2019-04-25 02:00:00 15.3 10 Oeste 24 Sudoeste 0 -- -- 80
2019-04-25 01:00:00 15.3 10 Oeste 26 Sudoeste 0 -- -- 79
2019-04-25 00:00:00 15.2 6 Oeste 15 Sudoeste 0 -- -- 78
2019-04-24 23:00:00 14.9 6 Sudoeste 15 Oeste 0 -- -- 75
2019-04-24 22:00:00 14.8 6 Oeste 14 Sudoeste 0 -- -- 71
2019-04-24 21:00:00 14.9 6 Oeste 19 Oeste 0 -- -- 70
2019-04-24 20:00:00 15.7 10 Oeste 35 Oeste 0 -- -- 65
2019-04-24 19:00:00 16.3 16 Oeste 47 Oeste 0 -- -- 60
2019-04-24 18:00:00 17.4 19 Oeste 40 Sudoeste 0 -- -- 47
2019-04-24 17:00:00 17.2 19 Oeste 41 Oeste 0 -- -- 52
2019-04-24 16:00:00 17.1 25 Oeste 44 Oeste 0 -- -- 51
2019-04-24 15:00:00 17.4 22 Oeste 40 Oeste 0 -- -- 53
2019-04-24 14:00:00 18.3 20 Oeste 38 Sudoeste 0 -- -- 50
2019-04-24 13:00:00 18.2 18 Sudoeste 34 Sudoeste 0 -- -- 50
2019-04-24 12:00:00 17.8 15 Sudoeste 31 Sur 0 -- -- 56
2019-04-24 11:00:00 17.9 14 Sudoeste 26 Sudoeste 0 -- -- 46
2019-04-24 10:00:00 16.4 5 Oeste 17 Oeste 0 -- -- 49
2019-04-24 09:00:00 12.7 5 Oeste 16 Oeste 0 -- -- 74
2019-04-24 08:00:00 12.4 3 Oeste 13 Oeste 0 -- -- 92
2019-04-24 07:00:00 13.8 8 Oeste 17 Sudoeste 0 -- -- 82
2019-04-24 06:00:00 14.2 6 Sudoeste 21 Oeste 0 -- -- 83
2019-04-24 05:00:00 14.9 12 Oeste 19 Oeste 0 -- -- 86
2019-04-24 04:00:00 15 6 Oeste 17 Sudoeste 0 -- -- 83
2019-04-24 03:00:00 15.2 5 Sudoeste 12 Noroeste 0 -- -- 82
2019-04-24 02:00:00 15.4 6 Oeste 14 Oeste 0 -- -- 78
2019-04-24 01:00:00 15.6 9 Oeste 15 Sudoeste 0 -- -- 76
2019-04-24 00:00:00 15.4 5 Oeste 8 Sudoeste 0 -- -- 81
2019-04-23 23:00:00 15.4 4 Sudoeste 9 Sudoeste 0 -- -- 85
2019-04-23 22:00:00 15.6 3 Sudeste 10 Sudoeste 0 -- -- 86
2019-04-23 21:00:00 15.9 5 Oeste 19 Oeste 0 -- -- 81
2019-04-23 20:00:00 16.5 10 Oeste 23 Oeste 0 -- -- 77
2019-04-23 19:00:00 17.2 9 Sudoeste 21 Sudoeste 0 -- -- 74
2019-04-23 18:00:00 18.2 3 Oeste 28 Sudoeste 0 -- -- 77
2019-04-23 17:00:00 18.4 11 Sudoeste 30 Sudoeste 0 -- -- 71
2019-04-23 16:00:00 18.9 14 Sudoeste 28 Oeste 0 -- -- 62
2019-04-23 15:00:00 19.6 17 Oeste 32 Oeste 0 -- -- 58
2019-04-23 14:00:00 19.9 14 Oeste 25 Sudoeste 0 -- -- 58
2019-04-23 13:00:00 18.2 12 Oeste 19 Oeste 0 -- -- 68
2019-04-23 12:00:00 17.6 4 Sudoeste 10 Sudoeste 0 -- -- 75
2019-04-23 11:00:00 15.4 3 Oeste 13 Noroeste 0 -- -- 82
2019-04-23 10:00:00 15.8 5 Oeste 17 Oeste 0 -- -- 79
2019-04-23 09:00:00 15.7 5 Oeste 10 Oeste 0 -- -- 77
2019-04-23 08:00:00 15.1 2 Oeste 6 Nordeste 0 -- -- 80
2019-04-23 07:00:00 14.9 2 Oeste 7 Noroeste 0 -- -- 81
2019-04-23 06:00:00 14.9 0 Calma 7 Sudoeste 0 -- -- 84
2019-04-23 05:00:00 15.2 2 Oeste 8 Oeste 0 -- -- 80
2019-04-23 04:00:00 15.2 3 Oeste 6 Oeste 0 -- -- 82
2019-04-23 03:00:00 15.1 2 Oeste 7 Nordeste 0 -- -- 81
2019-04-23 02:00:00 14.9 2 Nordeste 8 Norte 0.2 -- -- 84
2019-04-23 01:00:00 15.2 2 Norte 18 Nordeste 0.8 -- -- 83
2019-04-23 00:00:00 16.3 6 Este 24 Nordeste 0 -- -- 71
2019-04-22 23:00:00 16.4 8 Este 30 Este 0 -- -- 68
2019-04-22 22:00:00 16.8 9 Nordeste 26 Este 0 -- -- 61
2019-04-22 21:00:00 16.9 12 Este 26 Este 0 -- -- 58
2019-04-22 20:00:00 17 7 Este 22 Este 0 -- -- 59
2019-04-22 19:00:00 17.1 8 Este 29 Este 0 -- -- 60
2019-04-22 18:00:00 17.3 11 Este 37 Nordeste 0 -- -- 61
2019-04-22 17:00:00 17 12 Este 33 Este 0 -- -- 68
2019-04-22 16:00:00 17 13 Este 30 Este 0 -- -- 62
2019-04-22 15:00:00 17.4 8 Este 28 Este 0 -- -- 62
2019-04-22 14:00:00 17.1 12 Este 35 Este 0 -- -- 64
2019-04-22 13:00:00 17.8 11 Este 32 Sudeste 0 -- -- 64
2019-04-22 12:00:00 17.4 12 Nordeste 29 Nordeste 0 -- -- 64
2019-04-22 11:00:00 17.3 9 Este 31 Este 0 -- -- 62
2019-04-22 10:00:00 16.5 10 Nordeste 31 Este 0 -- -- 61
2019-04-22 09:00:00 14.2 11 Nordeste 32 Nordeste 0 -- -- 83
2019-04-22 08:00:00 13.2 10 Este 34 Este 0 -- -- 86
2019-04-22 07:00:00 16.1 15 Este 36 Este 0 -- -- 57
2019-04-22 06:00:00 16.3 7 Este 27 Este 0 -- -- 58
2019-04-22 05:00:00 16.1 10 Nordeste 26 Nordeste 0 -- -- 62
2019-04-22 04:00:00 16.3 9 Este 30 Nordeste 0 -- -- 58
2019-04-22 03:00:00 16.2 9 Este 24 Nordeste 0 -- -- 60
2019-04-22 02:00:00 16.9 13 Este 30 Nordeste 0 -- -- 51
2019-04-22 01:00:00 16.7 8 Este 31 Nordeste 0 -- -- 53
2019-04-22 00:00:00 16.9 12 Este 31 Este 0 -- -- 54
2019-04-21 23:00:00 16.7 12 Este 29 Nordeste 0 -- -- 58
2019-04-21 22:00:00 16.5 10 Nordeste 30 Nordeste 0 -- -- 62
2019-04-21 21:00:00 16.4 10 Este 26 Este 0 -- -- 65
2019-04-21 20:00:00 16.3 10 Este 31 Este 0 -- -- 72
2019-04-21 19:00:00 16.5 13 Este 39 Este 0 -- -- 71
2019-04-21 18:00:00 17.2 15 Este 45 Sudeste 0 -- -- 67
2019-04-21 17:00:00 17.9 18 Este 46 Este 0 -- -- 65
2019-04-21 16:00:00 19.7 11 Este 35 Sudeste 0 -- -- 57
2019-04-21 15:00:00 19 14 Este 37 Este 0 -- -- 58
2019-04-21 14:00:00 19.6 11 Este 38 Nordeste 0 -- -- 53
2019-04-21 13:00:00 18.3 12 Este 33 Sudeste 0 -- -- 57
2019-04-21 12:00:00 17.8 13 Este 43 Este 0 -- -- 62
2019-04-21 11:00:00 17.6 16 Este 36 Nordeste 0 -- -- 59
2019-04-21 10:00:00 17.3 17 Este 43 Este 0 -- -- 60
2019-04-21 09:00:00 17.3 12 Nordeste 35 Este 0 -- -- 49
2019-04-21 08:00:00 16.6 11 Nordeste 23 Nordeste 0 -- -- 49
2019-04-21 07:00:00 16.3 9 Este 32 Este 0 -- -- 51
2019-04-21 06:00:00 15.9 13 Nordeste 32 Nordeste 0 -- -- 59
2019-04-21 05:00:00 16.4 10 Este 30 Este 0 -- -- 52
2019-04-21 04:00:00 16.2 9 Este 30 Nordeste 0 -- -- 52
2019-04-21 03:00:00 16.3 9 Este 27 Nordeste 0 -- -- 50
2019-04-21 02:00:00 16.2 11 Este 33 Este 0 -- -- 52
2019-04-21 01:00:00 16.2 12 Este 29 Norte 0 -- -- 51
2019-04-21 00:00:00 15.4 12 Nordeste 27 Nordeste 0 -- -- 57
2019-04-20 23:00:00 15.9 9 Nordeste 34 Nordeste 0 -- -- 53
2019-04-20 22:00:00 15.2 11 Nordeste 29 Nordeste 0 -- -- 59
2019-04-20 21:00:00 15.9 9 Nordeste 23 Nordeste 0 -- -- 57
2019-04-20 20:00:00 16 8 Nordeste 32 Nordeste 0 -- -- 57
2019-04-20 19:00:00 17.1 10 Este 36 Este 0 -- -- 54
2019-04-20 18:00:00 17 15 Este 32 Nordeste 0 -- -- 55
2019-04-20 17:00:00 17.7 13 Este 35 Nordeste 0 -- -- 50
2019-04-20 16:00:00 17.9 12 Este 30 Nordeste 0 -- -- 51
2019-04-20 15:00:00 18.6 10 Este 39 Este 0 -- -- 47
2019-04-20 14:00:00 18.2 14 Este 42 Nordeste 0 -- -- 50
2019-04-20 13:00:00 18.4 13 Este 43 Este 0 -- -- 50
2019-04-20 12:00:00 17.5 12 Este 36 Este 0 -- -- 59
2019-04-20 11:00:00 18 11 Este 35 Este 0 -- -- 54
2019-04-20 10:00:00 17.9 9 Este 39 Este 0 -- -- 49
2019-04-20 09:00:00 17.3 15 Este 36 Este 0 -- -- 49
2019-04-20 08:00:00 13.4 14 Este 37 Nordeste 0 -- -- 72
2019-04-20 07:00:00 17 13 Este 33 Nordeste 0 -- -- 48
2019-04-20 06:00:00 16.9 13 Este 39 Nordeste 0 -- -- 51
2019-04-20 05:00:00 17.1 12 Este 32 Sudeste 0 -- -- 48
2019-04-20 04:00:00 17.1 13 Este 35 Nordeste 0 -- -- 50
2019-04-20 03:00:00 17 12 Este 33 Este 0 -- -- 51
2019-04-20 02:00:00 16.9 12 Nordeste 37 Nordeste 0 -- -- 53
2019-04-20 01:00:00 16.9 12 Este 38 Este 0 -- -- 53
2019-04-20 00:00:00 16.6 15 Este 36 Este 0 -- -- 55
2019-04-19 23:00:00 16.5 14 Este 32 Este 0 -- -- 60
2019-04-19 22:00:00 16.6 10 Este 27 Este 0 -- -- 61
2019-04-19 21:00:00 16.8 14 Este 32 Sudeste 0 -- -- 63
2019-04-19 20:00:00 16.7 9 Este 36 Este 0 -- -- 68
2019-04-19 19:00:00 16.8 15 Este 45 Sudeste 0 -- -- 69
2019-04-19 18:00:00 17.9 18 Este 41 Sudeste 0 -- -- 65
2019-04-19 17:00:00 18 14 Este 51 Sudeste 0 -- -- 59
2019-04-19 16:00:00 18.7 18 Este 47 Sudeste 0 -- -- 59
2019-04-19 15:00:00 19.7 12 Este 38 Este 0 -- -- 56
2019-04-19 14:00:00 18.7 17 Este 37 Sudeste 0 -- -- 61
2019-04-19 13:00:00 19.2 12 Este 40 Este 0 -- -- 60
2019-04-19 12:00:00 20.3 15 Este 41 Nordeste 0 -- -- 53
2019-04-19 11:00:00 18.4 17 Este 35 Este 0 -- -- 59
2019-04-19 10:00:00 16.6 14 Este 42 Nordeste 0 -- -- 68
2019-04-19 09:00:00 15.8 12 Este 30 Este 0 -- -- 70
2019-04-19 08:00:00 15.8 10 Este 34 Este 0 -- -- 69
2019-04-19 07:00:00 15.8 12 Este 35 Nordeste 0 -- -- 66
2019-04-19 06:00:00 15.8 9 Este 28 Este 0 -- -- 67
2019-04-19 05:00:00 15.8 13 Este 35 Este 0 -- -- 67
2019-04-19 04:00:00 15.8 12 Este 36 Este 0 -- -- 66
2019-04-19 03:00:00 15.9 14 Este 39 Nordeste 0 -- -- 66
2019-04-19 02:00:00 15.9 13 Este 36 Este 0 -- -- 66
2019-04-19 01:00:00 15.8 12 Este 37 Este 0 -- -- 66
2019-04-19 00:00:00 16.2 12 Este 41 Sudeste 0 -- -- 65
2019-04-18 23:00:00 15.9 13 Este 39 Este 0 -- -- 66
2019-04-18 22:00:00 15.8 13 Este 36 Este 0 -- -- 66
2019-04-18 21:00:00 15.4 14 Este 34 Este 0 -- -- 77
2019-04-18 20:00:00 16.2 13 Este 37 Este 0 -- -- 73
2019-04-18 19:00:00 16.7 17 Este 43 Este 0 -- -- 65
2019-04-18 18:00:00 17.3 12 Este 39 Sudeste 0 -- -- 66
2019-04-18 17:00:00 16.9 15 Este 40 Sudeste 0 -- -- 70
2019-04-18 16:00:00 17.5 16 Este 44 Este 0 -- -- 70
2019-04-18 15:00:00 18 17 Este 39 Este 0 -- -- 70
2019-04-18 14:00:00 17 11 Este 35 Este 0 -- -- 74
2019-04-18 13:00:00 17.1 13 Este 32 Este 0 -- -- 72
2019-04-18 12:00:00 16 10 Este 26 Sudeste 0 -- -- 69
2019-04-18 11:00:00 15.8 9 Este 31 Nordeste 0 -- -- 70
2019-04-18 10:00:00 15.8 11 Este 29 Sudeste 0 -- -- 74
2019-04-18 09:00:00 13.8 8 Este 24 Sudeste 0 -- -- 92
2019-04-18 08:00:00 12.5 8 Este 24 Este 0 -- -- 94
2019-04-18 07:00:00 13.8 11 Este 22 Nordeste 0 -- -- 79
2019-04-18 06:00:00 14.1 8 Este 24 Este 0 -- -- 84
2019-04-18 05:00:00 14.3 7 Este 19 Este 0 -- -- 83
2019-04-18 04:00:00 14.4 8 Este 22 Nordeste 0 -- -- 83
2019-04-18 03:00:00 14.5 6 Este 20 Sudeste 0 -- -- 85
2019-04-18 02:00:00 14.6 7 Este 20 Sudeste 0 -- -- 85
2019-04-18 01:00:00 14.8 6 Este 18 Sudeste 0 -- -- 85
2019-04-18 00:00:00 15 8 Este 17 Este 0 -- -- 84
2019-04-17 23:00:00 15.1 5 Este 15 Este 0 -- -- 84
2019-04-17 22:00:00 15 5 Este 14 Este 0 -- -- 84
2019-04-17 21:00:00 15.1 8 Este 15 Sudeste 0 -- -- 84
2019-04-17 20:00:00 15.4 6 Este 15 Sudeste 0 -- -- 80
2019-04-17 19:00:00 16.5 6 Este 14 Sudeste 0 -- -- 75
2019-04-17 18:00:00 16.7 6 Este 15 Sudeste 0 -- -- 71
2019-04-17 17:00:00 17.9 6 Este 15 Sudeste 0 -- -- 66
2019-04-17 16:00:00 18.7 6 Este 15 Sudeste 0 -- -- 64
2019-04-17 15:00:00 18.4 5 Este 14 Sudoeste 0 -- -- 64
2019-04-17 14:00:00 18.2 5 Sudoeste 12 Sudoeste 0 -- -- 63
2019-04-17 13:00:00 16.7 5 Nordeste 12 Este 0 -- -- 69
2019-04-17 12:00:00 16 5 Este 15 Sudeste 0 -- -- 70
2019-04-17 11:00:00 14.9 5 Sudeste 12 Sudeste 0 -- -- 84
2019-04-17 10:00:00 13.6 5 Este 12 Sudeste 0 -- -- 94
2019-04-17 09:00:00 12.9 4 Este 9 Este 0 -- -- 97
2019-04-17 08:00:00 11.4 2 Este 6 Nordeste 0 -- -- 95
2019-04-17 07:00:00 11.9 0 Calma 3 Oeste 0 -- -- 89
2019-04-17 06:00:00 12.3 0 Calma 3 Sudeste 0 -- -- 88
2019-04-17 05:00:00 12.8 0 Calma 4 Oeste 0 -- -- 87
2019-04-17 04:00:00 13.4 3 Nordeste 6 Nordeste 0 -- -- 86
2019-04-17 03:00:00 13.7 2 Sudeste 9 Este 0 -- -- 86
2019-04-17 02:00:00 13.8 4 Este 10 Este 0 -- -- 85
2019-04-17 01:00:00 14 2 Este 9 Este 0 -- -- 84
2019-04-17 00:00:00 14.2 3 Sudeste 10 Sudeste 0 -- -- 83
2019-04-16 23:00:00 14.4 4 Este 10 Este 0 -- -- 81
2019-04-16 22:00:00 14.2 2 Este 11 Este 0 -- -- 81
2019-04-16 21:00:00 14.5 4 Este 13 Sudeste 0 -- -- 81
2019-04-16 20:00:00 14.9 5 Este 17 Este 0 -- -- 80
2019-04-16 19:00:00 15.4 6 Sudeste 18 Sudeste 0 -- -- 78
2019-04-16 18:00:00 17.1 5 Este 17 Este 0 -- -- 74
2019-04-16 17:00:00 17.5 8 Sudeste 16 Este 0 -- -- 73
2019-04-16 16:00:00 18.1 8 Sudeste 20 Sur 0 -- -- 68
2019-04-16 15:00:00 18.1 7 Sudeste 18 Sudeste 0 -- -- 68
2019-04-16 14:00:00 18.8 6 Este 17 Sur 0 -- -- 65
2019-04-16 13:00:00 18.1 8 Sudeste 18 Sudeste 0 -- -- 68
2019-04-16 12:00:00 17.6 6 Este 15 Sudeste 0 -- -- 70
2019-04-16 11:00:00 16.2 5 Sudeste 18 Sudeste 0 -- -- 72
2019-04-16 10:00:00 15.6 4 Este 12 Nordeste 0 -- -- 68
2019-04-16 09:00:00 13.8 4 Este 13 Nordeste 0 -- -- 71
2019-04-16 08:00:00 12.9 5 Nordeste 13 Nordeste 0 -- -- 69
2019-04-16 07:00:00 12.5 3 Nordeste 12 Este 0 -- -- 70
2019-04-16 06:00:00 12.7 4 Este 11 Este 0 -- -- 65
2019-04-16 05:00:00 13.2 4 Este 10 Nordeste 0 -- -- 61
2019-04-16 04:00:00 13.1 3 Este 6 Nordeste 0 -- -- 62
2019-04-16 03:00:00 12.9 3 Este 15 Nordeste 0 -- -- 58
2019-04-16 02:00:00 13.2 4 Nordeste 13 Nordeste 0 -- -- 62
2019-04-16 01:00:00 13.3 4 Nordeste 13 Nordeste 0 -- -- 66
2019-04-16 00:00:00 13.2 3 Este 13 Sudeste 0 -- -- 70
2019-04-15 23:00:00 13.2 4 Este 12 Sudeste 0 -- -- 67
2019-04-15 22:00:00 13.4 4 Este 14 Sudeste 0 -- -- 61
2019-04-15 21:00:00 13.6 4 Este 13 Sudeste 0 -- -- 58
2019-04-15 20:00:00 14.1 6 Este 14 Este 0 -- -- 56
2019-04-15 19:00:00 15.1 6 Sudeste 15 Este 0 -- -- 61
2019-04-15 18:00:00 15.9 6 Este 15 Sudeste 0 -- -- 58
2019-04-15 17:00:00 16.8 5 Este 15 Sudeste 0 -- -- 55
2019-04-15 16:00:00 16 7 Sudeste 16 Sudeste 0 -- -- 56
2019-04-15 15:00:00 17 4 Nordeste 18 Sudeste 0 -- -- 53
2019-04-15 14:00:00 16.9 8 Sudeste 17 Sudeste 0 -- -- 52
2019-04-15 13:00:00 16.6 7 Este 18 Este 0 -- -- 56
2019-04-15 12:00:00 16.7 7 Sudeste 19 Este 0 -- -- 58
2019-04-15 11:00:00 16.2 7 Este 18 Nordeste 0 -- -- 58
2019-04-15 10:00:00 14.3 6 Este 17 Este 0 -- -- 73
2019-04-15 09:00:00 11.7 5 Este 18 Nordeste 0 -- -- 80
2019-04-15 08:00:00 10.4 5 Este 17 Este 0 -- -- 91
2019-04-15 07:00:00 12.8 6 Este 14 Sudeste 0 -- -- 73
2019-04-15 06:00:00 12.5 4 Este 14 Nordeste 0 -- -- 71
2019-04-15 05:00:00 12.6 2 Este 6 Nordeste 0 -- -- 75
2019-04-15 04:00:00 13 0 Calma 8 Este 0 -- -- 81
2019-04-15 03:00:00 13.3 3 Este 8 Nordeste 0 -- -- 81
2019-04-15 02:00:00 13.6 3 Este 9 Nordeste 0 -- -- 82
2019-04-15 01:00:00 13.4 3 Este 8 Este 0 -- -- 80
2019-04-15 00:00:00 13.9 2 Este 9 Este 0 -- -- 79
2019-04-14 23:00:00 13.5 4 Este 8 Este 0 -- -- 81
2019-04-14 22:00:00 13.6 3 Este 9 Nordeste 0 -- -- 79
2019-04-14 21:00:00 13.6 3 Este 10 Sudeste 0 -- -- 76
2019-04-14 20:00:00 14.2 4 Este 13 Este 0 -- -- 72
2019-04-14 19:00:00 14.9 5 Este 15 Sudeste 0 -- -- 69
2019-04-14 18:00:00 15.9 5 Este 17 Este 0 -- -- 67
2019-04-14 17:00:00 16.5 7 Este 18 Este 0 -- -- 64
2019-04-14 16:00:00 16.1 8 Este 25 Este 0 -- -- 67
2019-04-14 15:00:00 16.6 8 Este 22 Sudeste 0 -- -- 68
2019-04-14 14:00:00 17.2 9 Este 23 Este 0 -- -- 68
2019-04-14 13:00:00 17.3 10 Este 23 Este 0 -- -- 71
2019-04-14 12:00:00 17.8 9 Este 19 Sudeste 0 -- -- 68
2019-04-14 11:00:00 17 7 Este 17 Sudeste 0 -- -- 67
2019-04-14 10:00:00 14.7 3 Este 11 Nordeste 0 -- -- 66
2019-04-14 09:00:00 13.3 3 Este 9 Nordeste 0 -- -- 66
2019-04-14 08:00:00 12.3 4 Este 12 Nordeste 0 -- -- 65
2019-04-14 07:00:00 11.8 3 Este 12 Nordeste 0 -- -- 70
2019-04-14 06:00:00 12.1 3 Nordeste 6 Este 0 -- -- 72
2019-04-14 05:00:00 12.1 0 Calma 6 Este 0 -- -- 77
2019-04-14 04:00:00 12.3 0 Calma 4 Nordeste 0 -- -- 79
2019-04-14 03:00:00 12.6 0 Calma 3 Oeste 0 -- -- 83
2019-04-14 02:00:00 13 0 Calma 3 Oeste 0 -- -- 80
2019-04-14 01:00:00 13.5 0 Calma 5 Oeste 0 -- -- 77
2019-04-14 00:00:00 14.1 3 Sudoeste 8 Oeste 0 -- -- 73
2019-04-13 23:00:00 14.6 3 Oeste 7 Oeste 0 -- -- 67
2019-04-13 22:00:00 14.9 4 Sudoeste 13 Noroeste 0 -- -- 68
2019-04-13 21:00:00 15.1 7 Oeste 15 Sudoeste 0 -- -- 67
2019-04-13 20:00:00 15.9 8 Oeste 21 Sudoeste 0 -- -- 57
2019-04-13 19:00:00 16.9 9 Sudoeste 21 Sudoeste 0 -- -- 57
2019-04-13 18:00:00 18.2 6 Oeste 21 Sudoeste 0 -- -- 46
2019-04-13 17:00:00 18.7 8 Sudoeste 19 Sudoeste 0 -- -- 47
2019-04-13 16:00:00 18.6 8 Sudoeste 17 Sudoeste 0 -- -- 51
2019-04-13 15:00:00 17.9 5 Este 15 Este 0 -- -- 63
2019-04-13 14:00:00 18.1 5 Este 15 Sudeste 0 -- -- 60
2019-04-13 13:00:00 18 7 Este 16 Sudeste 0 -- -- 59
2019-04-13 12:00:00 18.1 3 Sur 10 Este 0 -- -- 55
2019-04-13 11:00:00 16.6 3 Nordeste 12 Sudoeste 0 -- -- 59
2019-04-13 10:00:00 15.3 4 Sudoeste 13 Oeste 0 -- -- 60
2019-04-13 09:00:00 11.7 6 Oeste 10 Oeste 0 -- -- 83
2019-04-13 08:00:00 10.1 4 Oeste 9 Oeste 0 -- -- 92
2019-04-13 07:00:00 12 5 Oeste 12 Oeste 0 -- -- 75
2019-04-13 06:00:00 12.5 5 Oeste 10 Oeste 0 -- -- 76
2019-04-13 05:00:00 12.6 3 Oeste 5 Sudoeste 0 -- -- 83
2019-04-13 04:00:00 13.1 4 Oeste 7 Oeste 0 -- -- 83
2019-04-13 03:00:00 13.8 4 Oeste 6 Oeste 0 -- -- 81
2019-04-13 02:00:00 14 3 Sudoeste 6 Sudoeste 0 -- -- 80
2019-04-13 01:00:00 14 4 Oeste 7 Oeste 0 -- -- 80
2019-04-13 00:00:00 14 4 Sudoeste 9 Oeste 0 -- -- 79
2019-04-12 23:00:00 14.1 4 Sudoeste 13 Sudoeste 0 -- -- 76
2019-04-12 22:00:00 14.3 6 Oeste 14 Sudoeste 0 -- -- 74
2019-04-12 21:00:00 14.6 6 Sudoeste 14 Sudoeste 0 -- -- 69
2019-04-12 20:00:00 15 6 Oeste 17 Sudoeste 0 -- -- 72
2019-04-12 19:00:00 16.3 4 Norte 16 Sudeste 0 -- -- 67
2019-04-12 18:00:00 17.2 5 Este 20 Sudeste 0 -- -- 61
2019-04-12 17:00:00 17.8 5 Sudeste 21 Sudeste 0 -- -- 60
2019-04-12 16:00:00 17.9 5 Oeste 17 Noroeste 0 -- -- 53
2019-04-12 15:00:00 18.4 5 Norte 16 Oeste 0 -- -- 53
2019-04-12 14:00:00 18.2 5 Noroeste 15 Sudoeste 0 -- -- 54
2019-04-12 13:00:00 18.5 6 Sudoeste 18 Sudoeste 0 -- -- 57
2019-04-12 12:00:00 18.6 5 Este 16 Sudeste 0 -- -- 51
2019-04-12 11:00:00 18.9 5 Sudeste 10 Sudeste 0 -- -- 43
2019-04-12 10:00:00 17 2 Sudoeste 12 Oeste 0 -- -- 46
2019-04-12 09:00:00 14.3 5 Oeste 10 Sudoeste 0 -- -- 52
2019-04-12 08:00:00 13.5 5 Oeste 8 Oeste 0 -- -- 54
2019-04-12 07:00:00 13.5 4 Oeste 12 Oeste 0 -- -- 53
2019-04-12 06:00:00 14.2 6 Oeste 16 Oeste 0 -- -- 50
2019-04-12 05:00:00 14.6 10 Oeste 17 Oeste 0 -- -- 51
2019-04-12 04:00:00 14.6 6 Oeste 10 Oeste 0 -- -- 57
2019-04-12 03:00:00 14.6 3 Oeste 5 Oeste 0 -- -- 59
2019-04-12 02:00:00 15.1 2 Oeste 6 Nordeste 0 -- -- 57
2019-04-12 01:00:00 14.7 0 Calma 4 Oeste 0 -- -- 64
2019-04-12 00:00:00 14.8 0 Calma 5 Oeste 0 -- -- 65
2019-04-11 23:00:00 14.5 2 Sudeste 10 Sudoeste 0 -- -- 72
2019-04-11 22:00:00 14.9 5 Este 12 Nordeste 0 -- -- 69
2019-04-11 21:00:00 15 6 Este 13 Este 0 -- -- 68
2019-04-11 20:00:00 15.5 4 Este 14 Este 0 -- -- 56
2019-04-11 19:00:00 15.9 7 Este 15 Sudeste 0 -- -- 54
2019-04-11 18:00:00 16.9 5 Sudeste 17 Nordeste 0 -- -- 53
2019-04-11 17:00:00 18.4 5 Sudeste 14 Este 0 -- -- 44
2019-04-11 16:00:00 19.3 5 Este 16 Sudeste 0 -- -- 46
2019-04-11 15:00:00 18.5 4 Oeste 17 Este 0 -- -- 50
2019-04-11 14:00:00 19.2 6 Sudeste 16 Sudeste 0 -- -- 55
2019-04-11 13:00:00 19.6 8 Este 21 Sudeste 0 -- -- 48
2019-04-11 12:00:00 19.7 4 Sur 14 Oeste 0 -- -- 38
2019-04-11 11:00:00 16.7 8 Oeste 16 Oeste 0 -- -- 42
2019-04-11 10:00:00 14.4 2 Sudeste 14 Oeste 0 -- -- 50
2019-04-11 09:00:00 12.9 6 Oeste 16 Oeste 0 -- -- 54
2019-04-11 08:00:00 10.8 10 Oeste 20 Oeste 0 -- -- 73
2019-04-11 07:00:00 12.5 9 Oeste 19 Oeste 0 -- -- 58
2019-04-11 06:00:00 12.9 8 Oeste 17 Oeste 0 -- -- 59
2019-04-11 05:00:00 13.3 8 Oeste 15 Oeste 0 -- -- 63
2019-04-11 04:00:00 13 3 Noroeste 12 Oeste 0 -- -- 68
2019-04-11 03:00:00 13 4 Oeste 9 Oeste 0 -- -- 64
2019-04-11 02:00:00 13 3 Oeste 6 Oeste 0 -- -- 63
2019-04-11 01:00:00 13.3 3 Noroeste 13 Oeste 0 -- -- 64
2019-04-11 00:00:00 13.3 5 Oeste 12 Nordeste 0 -- -- 66
2019-04-10 23:00:00 13.5 4 Este 8 Oeste 0 -- -- 64
2019-04-10 22:00:00 14.1 4 Oeste 13 Oeste 0 -- -- 64
2019-04-10 21:00:00 14.6 5 Oeste 10 Oeste 0 -- -- 63
2019-04-10 20:00:00 15 4 Oeste 12 Oeste 0 -- -- 60
2019-04-10 19:00:00 15.5 5 Sudoeste 10 Sur 0 -- -- 59
2019-04-10 18:00:00 14.3 5 Este 14 Sudeste 0.4 -- -- 70
2019-04-10 17:00:00 14.2 3 Este 23 Sudeste 1.6 -- -- 81
2019-04-10 16:00:00 18.1 5 Sudoeste 24 Oeste 0 -- -- 58
2019-04-10 15:00:00 18.7 17 Oeste 30 Oeste 0 -- -- 45
2019-04-10 14:00:00 18.8 9 Sudoeste 23 Sur 0 -- -- 50
2019-04-10 13:00:00 20 6 Sudoeste 13 Sudoeste 0 -- -- 43
2019-04-10 12:00:00 18.1 3 Sur 12 Oeste 0 -- -- 50
2019-04-10 11:00:00 15.4 7 Oeste 13 Oeste 0 -- -- 56
2019-04-10 10:00:00 14.8 7 Oeste 15 Oeste 0 -- -- 58
2019-04-10 09:00:00 12 7 Oeste 14 Noroeste 0 -- -- 70
2019-04-10 08:00:00 9.9 4 Oeste 11 Oeste 0 -- -- 84
2019-04-10 07:00:00 11.5 4 Oeste 12 Oeste 0 -- -- 70
2019-04-10 06:00:00 11.7 7 Oeste 19 Noroeste 0 -- -- 70
2019-04-10 05:00:00 11.9 9 Oeste 20 Oeste 0 -- -- 69
2019-04-10 04:00:00 12 9 Oeste 17 Oeste 0 -- -- 68
2019-04-10 03:00:00 12.1 3 Oeste 14 Oeste 0 -- -- 68
2019-04-10 02:00:00 11.7 7 Oeste 15 Oeste 0 -- -- 69
2019-04-10 01:00:00 11.2 2 Oeste 9 Oeste 0 -- -- 80
2019-04-10 00:00:00 11.6 2 Oeste 8 Oeste 0 -- -- 84
2019-04-09 23:00:00 11.7 5 Oeste 8 Oeste 0 -- -- 86
2019-04-09 22:00:00 11.6 0 Calma 8 Nordeste 0 -- -- 82
2019-04-09 21:00:00 11.7 3 Nordeste 10 Oeste 0 -- -- 80
2019-04-09 20:00:00 11.3 3 Oeste 13 Oeste 1.2 -- -- 84
2019-04-09 19:00:00 12.4 4 Nordeste 18 Este 1.6 -- -- 80
2019-04-09 18:00:00 15.2 6 Este 13 Este 0 -- -- 75
2019-04-09 17:00:00 14.5 3 Sur 15 Sudeste 1 -- -- 81
2019-04-09 16:00:00 17.6 5 Este 19 Sudeste 0 -- -- 63
2019-04-09 15:00:00 17 5 Este 18 Este 0 -- -- 67
2019-04-09 14:00:00 16.7 6 Sudeste 22 Sudeste 0 -- -- 67
2019-04-09 13:00:00 16.7 7 Sudeste 19 Sudeste 0 -- -- 67
2019-04-09 12:00:00 14.5 7 Este 22 Sudeste 0 -- -- 75
2019-04-09 11:00:00 17.5 6 Este 15 Este 0 -- -- 65
2019-04-09 10:00:00 15.4 6 Este 15 Este 0 -- -- 68
2019-04-09 09:00:00 14.2 2 Este 6 Nordeste 0 -- -- 70
2019-04-09 08:00:00 13.2 3 Nordeste 9 Este 0 -- -- 72
2019-04-09 07:00:00 13.4 3 Nordeste 7 Nordeste 0 -- -- 79
2019-04-09 06:00:00 13.5 4 Nordeste 9 Nordeste 0 -- -- 80
2019-04-09 05:00:00 13.7 0 Calma 9 Nordeste 0 -- -- 82
2019-04-09 04:00:00 13.5 3 Nordeste 10 Nordeste 0 -- -- 83
2019-04-09 03:00:00 13.4 4 Este 9 Nordeste 0 -- -- 83
2019-04-09 02:00:00 13.9 4 Este 15 Nordeste 0 -- -- 81
2019-04-09 01:00:00 14.2 0 Calma 6 Nordeste 0 -- -- 81
2019-04-09 00:00:00 14.4 3 Este 7 Nordeste 0 -- -- 79
2019-04-08 23:00:00 14.5 4 Oeste 9 Sudoeste 0 -- -- 77
2019-04-08 22:00:00 15 5 Sudoeste 23 Oeste 0 -- -- 75
2019-04-08 21:00:00 15.9 14 Oeste 25 Sudoeste 0 -- -- 66
2019-04-08 20:00:00 17 17 Oeste 39 Oeste 0 -- -- 55
2019-04-08 19:00:00 17.3 19 Oeste 36 Oeste 0 -- -- 55
2019-04-08 18:00:00 18.3 14 Sudoeste 30 Sudoeste 0 -- -- 61
2019-04-08 17:00:00 20.1 10 Oeste 27 Sudoeste 0 -- -- 54
2019-04-08 16:00:00 18 14 Sudoeste 27 Oeste 0 -- -- 62
2019-04-08 15:00:00 19.3 13 Oeste 28 Sudoeste 0 -- -- 50
2019-04-08 14:00:00 18 12 Sudoeste 27 Sudoeste 0.2 -- -- 56
2019-04-08 13:00:00 18 10 Sudoeste 24 Sur 0 -- -- 57
2019-04-08 12:00:00 17.5 9 Oeste 22 Oeste 0 -- -- 51
2019-04-08 11:00:00 15.6 10 Oeste 17 Sudoeste 0 -- -- 52
2019-04-08 10:00:00 12.7 0 Calma 6 Oeste 0 -- -- 93
2019-04-08 09:00:00 10.8 3 Sudoeste 6 Este 0 -- -- 96
2019-04-08 08:00:00 9.5 0 Calma 3 Sudeste 0 -- -- 95
2019-04-08 07:00:00 9.8 0 Calma 6 Oeste 0 -- -- 87
2019-04-08 06:00:00 10.2 0 Calma 3 Oeste 0 -- -- 86
2019-04-08 05:00:00 10.6 0 Calma 4 Oeste 0 -- -- 85
2019-04-08 04:00:00 11.1 2 Oeste 4 Oeste 0 -- -- 83
2019-04-08 03:00:00 11 3 Oeste 4 Oeste 0 -- -- 82
2019-04-08 02:00:00 11.1 3 Oeste 5 Noroeste 0 -- -- 81
2019-04-08 01:00:00 11.2 3 Oeste 7 Oeste 0 -- -- 79
2019-04-08 00:00:00 11.3 4 Oeste 8 Noroeste 0 -- -- 78
2019-04-07 23:00:00 11.3 3 Oeste 9 Oeste 0 -- -- 79
2019-04-07 22:00:00 11.7 4 Oeste 6 Oeste 0 -- -- 82
2019-04-07 21:00:00 12 0 Calma 6 Oeste 0 -- -- 80
2019-04-07 20:00:00 12.4 0 Calma 16 Oeste 0 -- -- 80
2019-04-07 19:00:00 12.8 8 Oeste 22 Sudoeste 0 -- -- 72
2019-04-07 18:00:00 12.6 9 Sudoeste 20 Este 1.8 -- -- 78
2019-04-07 17:00:00 14.2 6 Este 19 Sudeste 0.2 -- -- 67
2019-04-07 16:00:00 15.4 4 Este 20 Sudoeste 0 -- -- 57
2019-04-07 15:00:00 17.3 6 Este 21 Sudeste 0 -- -- 51
2019-04-07 14:00:00 17.3 7 Este 20 Sudeste 0 -- -- 50
2019-04-07 13:00:00 16.9 8 Este 22 Este 0 -- -- 50
2019-04-07 12:00:00 16 8 Este 20 Nordeste 0 -- -- 46
2019-04-07 11:00:00 15.5 5 Oeste 15 Nordeste 0 -- -- 49
2019-04-07 10:00:00 13.9 6 Oeste 13 Sudoeste 0 -- -- 53
2019-04-07 09:00:00 11.7 5 Oeste 17 Oeste 0 -- -- 58
2019-04-07 08:00:00 10.7 8 Oeste 22 Noroeste 0 -- -- 61
2019-04-07 07:00:00 10.6 10 Oeste 16 Oeste 0 -- -- 61
2019-04-07 06:00:00 10.7 2 Sur 11 Oeste 0 -- -- 61
2019-04-07 05:00:00 10.9 7 Oeste 15 Noroeste 0 -- -- 60
2019-04-07 04:00:00 11.5 6 Oeste 13 Oeste 0 -- -- 59
2019-04-07 03:00:00 12 5 Nordeste 11 Norte 0 -- -- 59
2019-04-07 02:00:00 12 2 Nordeste 9 Nordeste 0 -- -- 63
2019-04-07 01:00:00 12.3 3 Nordeste 12 Nordeste 0 -- -- 66
2019-04-07 00:00:00 12.3 2 Nordeste 8 Nordeste 0 -- -- 67
2019-04-06 23:00:00 12.4 0 Calma 6 Sudoeste 0 -- -- 70
2019-04-06 22:00:00 12.9 4 Oeste 10 Sudoeste 0 -- -- 67
2019-04-06 21:00:00 13.2 5 Oeste 19 Oeste 0 -- -- 60
2019-04-06 20:00:00 13.9 12 Oeste 35 Oeste 0 -- -- 56
2019-04-06 19:00:00 14.5 14 Oeste 33 Oeste 0 -- -- 55
2019-04-06 18:00:00 15.5 14 Sudoeste 39 Oeste 0 -- -- 47
2019-04-06 17:00:00 16.4 18 Oeste 33 Oeste 0 -- -- 44
2019-04-06 16:00:00 16 12 Oeste 27 Oeste 0 -- -- 46
2019-04-06 15:00:00 17.6 7 Oeste 24 Oeste 0 -- -- 37
2019-04-06 14:00:00 17.1 8 Oeste 20 Sudoeste 0 -- -- 40
2019-04-06 13:00:00 16.9 10 Oeste 27 Oeste 0 -- -- 42
2019-04-06 12:00:00 15.7 13 Oeste 32 Noroeste 0 -- -- 47
2019-04-06 11:00:00 14.1 15 Oeste 33 Oeste 0 -- -- 52
2019-04-06 10:00:00 12 11 Oeste 23 Oeste 0 -- -- 68
2019-04-06 09:00:00 8.9 8 Oeste 20 Oeste 0 -- -- 84
2019-04-06 08:00:00 7.5 8 Oeste 19 Oeste 0 -- -- 90
2019-04-06 07:00:00 9.3 8 Oeste 21 Sur 0 -- -- 77
2019-04-06 06:00:00 10 7 Oeste 15 Sudoeste 0.2 -- -- 78
2019-04-06 05:00:00 11.2 3 Oeste 9 Oeste 0 -- -- 84
2019-04-06 04:00:00 11.2 4 Oeste 13 Noroeste 0.8 -- -- 84
2019-04-06 03:00:00 11.3 4 Oeste 11 Oeste 0 -- -- 85
2019-04-06 02:00:00 11.6 5 Sudoeste 12 Oeste 0.4 -- -- 84
2019-04-06 01:00:00 12 0 Calma 13 Oeste 0 -- -- 83
2019-04-06 00:00:00 11.8 4 Oeste 23 Oeste 1.6 -- -- 89
2019-04-05 23:00:00 13.8 3 Nordeste 15 Nordeste 0.2 -- -- 82
2019-04-05 22:00:00 13.1 6 Este 21 Sudeste 0.4 -- -- 83
2019-04-05 21:00:00 13.8 8 Sudoeste 28 Sudoeste 0 -- -- 84
2019-04-05 20:00:00 15 5 Sudoeste 17 Sudoeste 0 -- -- 82
2019-04-05 19:00:00 15.3 4 Noroeste 24 Sudoeste 0 -- -- 79
2019-04-05 18:00:00 15.6 9 Sudoeste 27 Sudoeste 0 -- -- 74
2019-04-05 17:00:00 15.8 16 Oeste 33 Sur 0 -- -- 71
2019-04-05 16:00:00 17 17 Oeste 37 Sudoeste 0 -- -- 65
2019-04-05 15:00:00 16.1 14 Oeste 45 Sudoeste 0 -- -- 75
2019-04-05 14:00:00 17.2 14 Oeste 33 Sudoeste 0 -- -- 66
2019-04-05 13:00:00 16.8 14 Sudoeste 29 Sur 0 -- -- 66
2019-04-05 12:00:00 14 4 Norte 9 Oeste 0 -- -- 70
2019-04-05 11:00:00 13.7 4 Este 9 Sudeste 0 -- -- 67
2019-04-05 10:00:00 13.1 5 Sudeste 10 Sudeste 0 -- -- 68
2019-04-05 09:00:00 12 2 Sudeste 5 Sudeste 0 -- -- 69
2019-04-05 08:00:00 9 0 Calma 4 Este 0 -- -- 74
2019-04-05 07:00:00 8.8 0 Calma 3 Sudoeste 0 -- -- 75
2019-04-05 06:00:00 8.9 0 Calma 3 Este 0 -- -- 72
2019-04-05 05:00:00 9.2 0 Calma 3 Sudoeste 0 -- -- 71
2019-04-05 04:00:00 9.8 0 Calma 5 Oeste 0 -- -- 66
2019-04-05 03:00:00 10.2 3 Sudoeste 5 Sudoeste 0 -- -- 63
2019-04-05 02:00:00 10.5 3 Oeste 5 Sudoeste 0 -- -- 62
2019-04-05 01:00:00 10.5 2 Oeste 4 Sudoeste 0 -- -- 62
2019-04-05 00:00:00 11 3 Oeste 6 Sudoeste 0 -- -- 64
2019-04-04 23:00:00 11.3 0 Calma 13 Nordeste 0 -- -- 63
2019-04-04 22:00:00 12.3 6 Nordeste 17 Norte 0 -- -- 61
2019-04-04 21:00:00 12.7 6 Nordeste 17 Este 0 -- -- 64
2019-04-04 20:00:00 13 5 Este 19 Este 0 -- -- 61
2019-04-04 19:00:00 14.3 4 Este 15 Sudeste 0 -- -- 53
2019-04-04 18:00:00 15.1 4 Noroeste 18 Norte 0 -- -- 50
2019-04-04 17:00:00 15.4 5 Norte 16 Noroeste 0 -- -- 46
2019-04-04 16:00:00 15.4 5 Este 22 Sudoeste 0 -- -- 44
2019-04-04 15:00:00 15.1 5 Norte 24 Sur 0 -- -- 46
2019-04-04 14:00:00 14.4 12 Sudoeste 24 Sudoeste 0 -- -- 46
2019-04-04 13:00:00 15.7 7 Oeste 19 Oeste 0 -- -- 34
2019-04-04 12:00:00 14 4 Sudoeste 18 Oeste 0 -- -- 41
2019-04-04 11:00:00 11.6 8 Oeste 19 Oeste 0 -- -- 44
2019-04-04 10:00:00 9.7 4 Oeste 23 Oeste 0 -- -- 52
2019-04-04 09:00:00 7.5 8 Oeste 20 Oeste 0 -- -- 66
2019-04-04 08:00:00 5.2 4 Oeste 18 Noroeste 0 -- -- 83
2019-04-04 07:00:00 8.1 3 Sur 10 Este 0 -- -- 53
2019-04-04 06:00:00 8.5 3 Oeste 12 Nordeste 0 -- -- 54
2019-04-04 05:00:00 9.3 5 Nordeste 14 Nordeste 0 -- -- 67
2019-04-04 04:00:00 9.6 3 Este 17 Sudeste 0 -- -- 79
2019-04-04 03:00:00 9.6 6 Este 21 Sudeste 0 -- -- 80
2019-04-04 02:00:00 9.6 4 Este 22 Este 0 -- -- 83
2019-04-04 01:00:00 10 6 Este 20 Este 0 -- -- 85
2019-04-04 00:00:00 10.6 9 Este 19 Sudeste 0 -- -- 84
2019-04-03 23:00:00 11 4 Sudoeste 9 Sudoeste 0.2 -- -- 77
2019-04-03 22:00:00 11.2 0 Calma 14 Este 0.2 -- -- 74
2019-04-03 21:00:00 11.7 3 Este 16 Oeste 1 -- -- 76
2019-04-03 20:00:00 13.4 5 Oeste 18 Este 0.4 -- -- 69
2019-04-03 19:00:00 14.2 5 Nordeste 14 Nordeste 0 -- -- 62
2019-04-03 18:00:00 16.1 4 Sudoeste 18 Sudoeste 0 -- -- 54
2019-04-03 17:00:00 16.4 7 Sudoeste 19 Sudoeste 0 -- -- 74
2019-04-03 16:00:00 17.1 4 Nordeste 18 Sur 0 -- -- 72
2019-04-03 15:00:00 18.6 11 Oeste 31 Sudoeste 0 -- -- 66
2019-04-03 14:00:00 18 15 Sudoeste 31 Sudoeste 0 -- -- 66
2019-04-03 13:00:00 17.4 10 Sudoeste 22 Oeste 0 -- -- 68
2019-04-03 12:00:00 17 10 Oeste 23 Sudoeste 0 -- -- 72
2019-04-03 11:00:00 16.2 10 Oeste 20 Oeste 0 -- -- 83
2019-04-03 10:00:00 14.9 6 Sudoeste 15 Oeste 0 -- -- 95
2019-04-03 09:00:00 14.1 4 Sudoeste 12 Sudoeste 0 -- -- 99
2019-04-03 08:00:00 13.3 0 Calma 9 Este 0 -- -- 97
2019-04-03 07:00:00 13.5 3 Este 8 Este 0 -- -- 91
2019-04-03 06:00:00 13.4 2 Este 9 Este 0 -- -- 91
2019-04-03 05:00:00 13.5 3 Este 10 Este 0 -- -- 90
2019-04-03 04:00:00 13.4 5 Este 13 Este 0 -- -- 90
2019-04-03 03:00:00 13.4 3 Este 14 Nordeste 0 -- -- 91
2019-04-03 02:00:00 13.6 2 Norte 14 Este 2.8 -- -- 90
2019-04-03 01:00:00 14.1 6 Este 20 Este 0.4 -- -- 91
2019-04-03 00:00:00 14.3 6 Este 18 Sudeste 0 -- -- 87
2019-04-02 23:00:00 14.5 7 Este 22 Este 0 -- -- 84
2019-04-02 22:00:00 14.9 5 Este 15 Sudeste 0 -- -- 87
2019-04-02 21:00:00 15.1 4 Este 16 Sudoeste 0 -- -- 85
2019-04-02 20:00:00 15.5 7 Sudoeste 25 Sudoeste 0 -- -- 76
2019-04-02 19:00:00 15.9 13 Sudoeste 39 Oeste 0 -- -- 74
2019-04-02 18:00:00 17.9 16 Sudoeste 34 Oeste 0 -- -- 67
2019-04-02 17:00:00 17.4 17 Oeste 30 Oeste 0 -- -- 69
2019-04-02 16:00:00 18.4 17 Oeste 30 Oeste 0 -- -- 66
2019-04-02 15:00:00 18.2 19 Oeste 36 Oeste 0 -- -- 67
2019-04-02 14:00:00 18.7 15 Oeste 29 Oeste 0 -- -- 64
2019-04-02 13:00:00 18.3 13 Sudoeste 28 Oeste 0 -- -- 64
2019-04-02 12:00:00 18.2 12 Oeste 24 Oeste 0 -- -- 63
2019-04-02 11:00:00 17 11 Oeste 18 Oeste 0 -- -- 61
2019-04-02 10:00:00 14.6 6 Oeste 12 Sudoeste 0 -- -- 65
2019-04-02 09:00:00 13.8 5 Oeste 11 Oeste 0 -- -- 64
2019-04-02 08:00:00 13.2 4 Sudoeste 8 Oeste 0 -- -- 59
2019-04-02 07:00:00 12.9 3 Sudoeste 9 Oeste 0 -- -- 64
2019-04-02 06:00:00 12.3 0 Calma 6 Sudoeste 0 -- -- 67
2019-04-02 05:00:00 12.6 2 Sudoeste 5 Sur 0 -- -- 67
2019-04-02 04:00:00 12.9 3 Sudoeste 6 Sudoeste 0 -- -- 67
2019-04-02 03:00:00 12.8 3 Sudoeste 10 Sudoeste 0 -- -- 70
2019-04-02 02:00:00 12.9 6 Oeste 10 Oeste 0 -- -- 77
2019-04-02 01:00:00 12.9 5 Oeste 9 Oeste 0 -- -- 79
2019-04-02 00:00:00 13.1 4 Sudoeste 8 Oeste 0 -- -- 79
2019-04-01 23:00:00 13.5 4 Oeste 9 Sudoeste 0 -- -- 76
2019-04-01 22:00:00 13.7 5 Oeste 9 Oeste 0 -- -- 75
2019-04-01 21:00:00 14 6 Oeste 13 Oeste 0 -- -- 73
2019-04-01 20:00:00 14.8 6 Sudoeste 17 Sur 0 -- -- 61
2019-04-01 19:00:00 16.1 3 Sudeste 15 Sudoeste 0 -- -- 64
2019-04-01 18:00:00 16.9 4 Nordeste 14 Sudeste 0 -- -- 60
2019-04-01 17:00:00 17.7 5 Noroeste 14 Sudoeste 0 -- -- 57
2019-04-01 16:00:00 17.9 5 Este 14 Este 0 -- -- 64
2019-04-01 15:00:00 17.9 5 Este 14 Sudeste 0 -- -- 59
2019-04-01 14:00:00 17.9 7 Sudeste 16 Sudeste 0 -- -- 52
2019-04-01 13:00:00 17.8 6 Este 15 Sudeste 0 -- -- 55
2019-04-01 12:00:00 17.8 6 Sudeste 13 Sudeste 0 -- -- 52
2019-04-01 11:00:00 16.4 6 Sudeste 14 Sudeste 0 -- -- 62
2019-04-01 10:00:00 14.6 5 Este 11 Sudeste 0 -- -- 80
2019-04-01 09:00:00 11.5 2 Este 7 Nordeste 0 -- -- 85
2019-04-01 08:00:00 10 2 Este 8 Este 0 -- -- 90
2019-04-01 07:00:00 12.8 3 Este 10 Nordeste 0 -- -- 61
2019-04-01 06:00:00 12.9 3 Nordeste 10 Nordeste 0 -- -- 62
2019-04-01 05:00:00 13.2 3 Este 9 Este 0 -- -- 61
2019-04-01 04:00:00 13.2 3 Este 6 Este 0 -- -- 60
2019-04-01 03:00:00 13.2 3 Este 9 Nordeste 0 -- -- 63
2019-04-01 02:00:00 13.6 3 Este 13 Sudeste 0 -- -- 70
2019-04-01 01:00:00 13.7 4 Este 13 Este 0 -- -- 73
2019-04-01 00:00:00 13.8 6 Este 15 Este 0 -- -- 77
2019-03-31 23:00:00 13.9 4 Este 17 Este 0 -- -- 78
2019-03-31 22:00:00 14 5 Este 15 Este 0 -- -- 77
2019-03-31 21:00:00 13.8 8 Este 21 Este 0 -- -- 80
2019-03-31 20:00:00 14 8 Este 23 Este 0 -- -- 80
2019-03-31 19:00:00 14.5 8 Este 23 Nordeste 0 -- -- 79
2019-03-31 18:00:00 15.2 9 Este 29 Nordeste 0 -- -- 74
2019-03-31 17:00:00 16.1 10 Este 30 Este 0 -- -- 69
2019-03-31 16:00:00 16.8 11 Este 30 Sudeste 0 -- -- 66
2019-03-31 15:00:00 17.2 12 Este 28 Este 0 -- -- 63
2019-03-31 14:00:00 17 12 Este 28 Este 0 -- -- 64
2019-03-31 13:00:00 16.9 12 Este 29 Este 0 -- -- 65
2019-03-31 12:00:00 15.9 9 Este 24 Sudeste 0 -- -- 68
2019-03-31 11:00:00 14.8 8 Este 26 Este 0 -- -- 75
2019-03-31 10:00:00 13.4 5 Este 19 Este 0 -- -- 78
2019-03-31 09:00:00 12.6 4 Este 12 Este 0 -- -- 76
2019-03-31 08:00:00 12.2 3 Este 13 Nordeste 0 -- -- 73
2019-03-31 07:00:00 12.1 4 Este 14 Nordeste 0 -- -- 71
2019-03-31 06:00:00 12.4 4 Este 11 Nordeste 0 -- -- 69
2019-03-31 05:00:00 12.4 3 Este 10 Nordeste 0 -- -- 69
2019-03-31 03:00:00 12 4 Nordeste 15 Nordeste 0 -- -- 74
2019-03-31 01:00:00 12.5 8 Nordeste 14 Nordeste 0 -- -- 74
2019-03-31 00:00:00 13 4 Nordeste 13 Nordeste 0 -- -- 75
2019-03-30 23:00:00 13.1 3 Este 10 Sudeste 0 -- -- 76
2019-03-30 22:00:00 12.9 4 Este 9 Este 0 -- -- 74
2019-03-30 21:00:00 13.2 3 Este 15 Sudeste 0 -- -- 73
2019-03-30 20:00:00 13.3 5 Este 18 Este 0 -- -- 71
2019-03-30 19:00:00 13.7 7 Este 17 Este 0 -- -- 71
2019-03-30 18:00:00 15 6 Este 21 Sudeste 0 -- -- 65
2019-03-30 17:00:00 16 6 Este 19 Sudeste 0 -- -- 64
2019-03-30 16:00:00 16.9 6 Este 21 Sudeste 0 -- -- 57
2019-03-30 15:00:00 17 8 Este 19 Sudeste 0 -- -- 57
2019-03-30 14:00:00 17.2 8 Sudeste 20 Sur 0 -- -- 60
2019-03-30 13:00:00 17.4 8 Este 18 Sudeste 0 -- -- 60
2019-03-30 12:00:00 17.1 7 Este 19 Este 0 -- -- 62
2019-03-30 11:00:00 16.6 6 Este 16 Sudeste 0 -- -- 58
2019-03-30 10:00:00 15.1 6 Este 15 Nordeste 0 -- -- 56
2019-03-30 09:00:00 13 8 Nordeste 15 Nordeste 0 -- -- 58
2019-03-30 08:00:00 9.5 9 Nordeste 17 Nordeste 0 -- -- 82
2019-03-30 07:00:00 8.3 6 Nordeste 13 Nordeste 0 -- -- 90
2019-03-30 06:00:00 10.9 4 Nordeste 11 Nordeste 0 -- -- 64
2019-03-30 05:00:00 11.1 3 Nordeste 7 Nordeste 0 -- -- 65
2019-03-30 04:00:00 10.9 0 Calma 8 Nordeste 0 -- -- 64
2019-03-30 03:00:00 11.3 3 Este 8 Nordeste 0 -- -- 61
2019-03-30 02:00:00 11.8 3 Este 7 Este 0 -- -- 65
2019-03-30 01:00:00 12.2 3 Este 9 Nordeste 0 -- -- 67
2019-03-30 00:00:00 12.3 3 Este 13 Sudeste 0 -- -- 66
2019-03-29 23:00:00 12.6 4 Este 12 Sudeste 0 -- -- 68
2019-03-29 22:00:00 12.7 5 Este 12 Este 0 -- -- 67
2019-03-29 21:00:00 13.1 6 Este 15 Este 0 -- -- 65
2019-03-29 20:00:00 13.3 6 Este 22 Este 0 -- -- 64
2019-03-29 19:00:00 14 8 Este 21 Sudeste 0 -- -- 61
2019-03-29 18:00:00 15.4 7 Este 17 Este 0 -- -- 56
2019-03-29 17:00:00 16.3 8 Sudeste 21 Sudeste 0 -- -- 57
2019-03-29 16:00:00 16.9 9 Sudeste 19 Este 0 -- -- 59
2019-03-29 15:00:00 17.4 7 Sudeste 17 Sudeste 0 -- -- 56
2019-03-29 14:00:00 17.3 8 Este 18 Sudeste 0 -- -- 51
2019-03-29 13:00:00 17.1 6 Este 16 Este 0 -- -- 62
2019-03-29 12:00:00 17.1 8 Este 18 Este 0 -- -- 62
2019-03-29 11:00:00 16.9 7 Este 18 Sudeste 0 -- -- 59
2019-03-29 10:00:00 16.1 6 Este 14 Este 0 -- -- 60
2019-03-29 09:00:00 13.8 7 Este 15 Nordeste 0 -- -- 54
2019-03-29 08:00:00 12.5 4 Nordeste 8 Nordeste 0 -- -- 53
2019-03-29 07:00:00 9.8 0 Calma 8 Nordeste 0 -- -- 58
2019-03-29 06:00:00 10.8 2 Este 8 Oeste 0 -- -- 55
2019-03-29 05:00:00 11.8 4 Oeste 9 Oeste 0 -- -- 49
2019-03-29 04:00:00 11.2 0 Calma 4 Sudoeste 0 -- -- 55
2019-03-29 03:00:00 12 3 Oeste 8 Oeste 0 -- -- 58
2019-03-29 02:00:00 12.1 3 Oeste 6 Oeste 0 -- -- 63
2019-03-29 01:00:00 12.2 0 Calma 6 Oeste 0 -- -- 56
2019-03-29 00:00:00 12.7 4 Oeste 6 Oeste 0 -- -- 57
2019-03-28 23:00:00 12.7 4 Oeste 6 Oeste 0 -- -- 66
2019-03-28 22:00:00 12.9 4 Oeste 6 Oeste 0 -- -- 66
2019-03-28 21:00:00 12.9 2 Sudoeste 5 Sudeste 0 -- -- 66
2019-03-28 20:00:00 13 2 Sudeste 5 Este 0 -- -- 63
2019-03-28 19:00:00 13.7 2 Este 9 Sudeste 0 -- -- 61
2019-03-28 18:00:00 14.7 6 Sudeste 13 Sudeste 0 -- -- 61
2019-03-28 17:00:00 16.2 5 Sudoeste 15 Este 0 -- -- 59
2019-03-28 16:00:00 16.8 5 Este 21 Este 0 -- -- 54
2019-03-28 15:00:00 17.4 7 Este 17 Este 0 -- -- 53
2019-03-28 14:00:00 17.8 5 Este 14 Sudeste 0 -- -- 48
2019-03-28 13:00:00 17.4 5 Este 15 Este 0 -- -- 43
2019-03-28 12:00:00 18 6 Sudeste 15 Este 0 -- -- 40
2019-03-28 11:00:00 17.9 6 Este 16 Sudeste 0 -- -- 37
2019-03-28 10:00:00 16.6 4 Este 12 Nordeste 0 -- -- 36
2019-03-28 09:00:00 14.7 7 Nordeste 14 Nordeste 0 -- -- 40
2019-03-28 08:00:00 12 3 Nordeste 10 Nordeste 0 -- -- 62
2019-03-28 07:00:00 8.2 2 Nordeste 8 Nordeste 0 -- -- 88
2019-03-28 06:00:00 11.7 4 Nordeste 9 Nordeste 0 -- -- 51
2019-03-28 05:00:00 11.3 3 Nordeste 10 Nordeste 0 -- -- 52
2019-03-28 04:00:00 11.3 3 Nordeste 9 Nordeste 0 -- -- 58
2019-03-28 03:00:00 11.6 3 Nordeste 9 Nordeste 0 -- -- 63
2019-03-28 02:00:00 11.4 0 Calma 5 Oeste 0 -- -- 66
2019-03-28 01:00:00 11.5 0 Calma 4 Oeste 0 -- -- 67
2019-03-28 00:00:00 11.8 0 Calma 6 Sudeste 0 -- -- 65
2019-03-27 23:00:00 12.6 2 Oeste 12 Noroeste 0 -- -- 58
2019-03-27 22:00:00 12.9 3 Oeste 10 Oeste 0 -- -- 61
2019-03-27 21:00:00 12.6 3 Oeste 12 Sudoeste 0 -- -- 62
2019-03-27 20:00:00 13 6 Oeste 11 Sudoeste 0 -- -- 61
2019-03-27 19:00:00 13.4 3 Oeste 12 Sudoeste 0 -- -- 59
2019-03-27 18:00:00 14.6 3 Este 13 Sudeste 0 -- -- 53
2019-03-27 17:00:00 15.9 5 Este 19 Este 0 -- -- 50
2019-03-27 16:00:00 16.8 5 Noroeste 19 Sudoeste 0 -- -- 43
2019-03-27 15:00:00 16.8 6 Sur 26 Sudoeste 0 -- -- 47
2019-03-27 14:00:00 15.9 13 Sudoeste 28 Sur 0 -- -- 45
2019-03-27 13:00:00 17.2 12 Sudoeste 26 Sudoeste 0 -- -- 45
2019-03-27 12:00:00 18.6 8 Oeste 20 Oeste 0 -- -- 31
2019-03-27 11:00:00 17.7 9 Oeste 18 Oeste 0 -- -- 30
2019-03-27 10:00:00 16.2 4 Sudeste 9 Sudeste 0 -- -- 47
2019-03-27 09:00:00 12.8 3 Sudeste 8 Este 0 -- -- 73
2019-03-27 08:00:00 9.5 0 Calma 4 Nordeste 0 -- -- 84
2019-03-27 07:00:00 7.1 3 Nordeste 6 Nordeste 0 -- -- 88
2019-03-27 06:00:00 10 0 Calma 6 Oeste 0 -- -- 59
2019-03-27 05:00:00 10.6 5 Oeste 7 Oeste 0 -- -- 58
2019-03-27 04:00:00 10.2 0 Calma 5 Sudeste 0 -- -- 62
2019-03-27 03:00:00 10.6 2 Sur 5 Oeste 0 -- -- 60
2019-03-27 02:00:00 11 2 Este 5 Oeste 0 -- -- 57
2019-03-27 01:00:00 12.2 2 Sudoeste 10 Noroeste 0 -- -- 52
2019-03-27 00:00:00 12.8 5 Oeste 19 Oeste 0 -- -- 50